createdAt,value
2023-03-05T00:01:19.057Z,63.60
2023-03-05T00:03:46.788Z,68.30
2023-03-05T00:06:13.654Z,70.20
2023-03-05T00:08:40.786Z,69.53
2023-03-05T00:11:10.429Z,63.28
2023-03-05T00:13:38.293Z,62.83
2023-03-05T00:16:09.276Z,70.68
2023-03-05T00:18:36.735Z,71.07
2023-03-05T00:21:03.966Z,67.05
2023-03-05T00:23:31.105Z,68.10
2023-03-05T00:26:02.605Z,63.85
2023-03-05T00:28:29.452Z,67.45
2023-03-05T00:31:01.094Z,67.25
2023-03-05T00:33:28.459Z,66.00
2023-03-05T00:35:55.249Z,68.82
2023-03-05T00:38:22.089Z,71.30
2023-03-05T00:40:51.071Z,72.45
2023-03-05T00:43:17.813Z,62.33
2023-03-05T00:45:44.846Z,70.32
2023-03-05T00:48:12.488Z,67.28
2023-03-05T00:50:39.392Z,70.85
2023-03-05T00:53:06.260Z,64.85
2023-03-05T00:55:33.155Z,63.63
2023-03-05T00:57:59.936Z,75.68
2023-03-05T01:00:26.817Z,70.00
2023-03-05T01:02:53.613Z,72.10
2023-03-05T01:05:20.777Z,75.95
2023-03-05T01:07:47.851Z,68.72
2023-03-05T01:10:14.676Z,74.18
2023-03-05T01:12:41.527Z,76.15
2023-03-05T01:15:08.813Z,67.68
2023-03-05T01:17:35.620Z,68.55
2023-03-05T01:20:03.003Z,73.03
2023-03-05T01:22:30.034Z,66.20
2023-03-05T01:24:56.994Z,65.45
2023-03-05T01:27:24.196Z,69.18
2023-03-05T01:29:51.212Z,70.03
2023-03-05T01:32:18.259Z,67.05
2023-03-05T01:34:45.350Z,69.50
2023-03-05T01:37:12.116Z,62.33
2023-03-05T01:39:39.789Z,64.68
2023-03-05T01:42:06.766Z,66.07
2023-03-05T01:44:34.672Z,61.58
2023-03-05T01:47:02.666Z,66.57
2023-03-05T01:49:38.865Z,66.68
2023-03-05T01:52:18.186Z,71.03
2023-03-05T01:54:50.028Z,68.55
2023-03-05T01:57:23.095Z,63.08
2023-03-05T01:59:55.724Z,70.25
2023-03-05T02:02:22.999Z,63.47
2023-03-05T02:04:59.294Z,71.18
2023-03-05T02:07:26.987Z,66.25
2023-03-05T02:09:53.726Z,73.90
2023-03-05T02:12:21.132Z,66.72
2023-03-05T02:14:51.271Z,66.28
2023-03-05T02:17:18.278Z,61.58
2023-03-05T02:19:51.909Z,55.05
2023-03-05T02:22:21.465Z,60.70
2023-03-05T02:24:48.465Z,57.83
2023-03-05T02:27:15.903Z,57.65
2023-03-05T02:29:46.591Z,59.25
2023-03-05T02:32:14.047Z,56.58
2023-03-05T02:34:41.287Z,56.63
2023-03-05T02:37:10.297Z,66.35
2023-03-05T02:39:39.781Z,58.70
2023-03-05T02:42:07.192Z,52.65
2023-03-05T02:44:36.085Z,60.83
2023-03-05T02:47:03.110Z,63.28
2023-03-05T02:49:31.258Z,54.72
2023-03-05T02:51:58.216Z,59.47
2023-03-05T02:54:25.374Z,54.22
2023-03-05T02:56:52.321Z,64.82
2023-03-05T02:59:19.222Z,60.72
2023-03-05T03:01:46.679Z,58.67
2023-03-05T03:04:13.589Z,59.33
2023-03-05T03:06:40.458Z,59.88
2023-03-05T03:09:07.256Z,63.53
2023-03-05T03:11:34.121Z,61.28
2023-03-05T03:14:00.953Z,62.78
2023-03-05T03:16:27.877Z,60.15
2023-03-05T03:18:54.796Z,58.50
2023-03-05T03:21:24.737Z,63.30
2023-03-05T03:23:51.621Z,63.42
2023-03-05T03:26:18.943Z,60.80
2023-03-05T03:28:49.188Z,55.35
2023-03-05T03:31:16.772Z,58.15
2023-03-05T03:33:44.409Z,60.05
2023-03-05T03:36:11.349Z,54.20
2023-03-05T03:38:38.510Z,62.20
2023-03-05T03:41:09.400Z,67.35
2023-03-05T03:43:36.882Z,67.15
2023-03-05T03:46:06.247Z,62.90
2023-03-05T03:48:33.658Z,74.05
2023-03-05T03:51:04.488Z,71.75
2023-03-05T03:53:31.346Z,65.53
2023-03-05T03:55:59.487Z,67.05
2023-03-05T03:58:26.861Z,73.07
2023-03-05T04:00:53.788Z,71.35
2023-03-05T04:03:20.670Z,66.03
2023-03-05T04:05:47.641Z,66.60
2023-03-05T04:08:14.541Z,70.63
2023-03-05T04:10:41.520Z,69.13
2023-03-05T04:13:08.464Z,69.47
2023-03-05T04:15:35.651Z,70.85
2023-03-05T04:18:02.748Z,65.55
2023-03-05T04:20:29.647Z,73.03
2023-03-05T04:22:56.530Z,68.20
2023-03-05T04:25:23.685Z,65.97
2023-03-05T04:27:51.231Z,60.65
2023-03-05T04:30:18.200Z,66.35
2023-03-05T04:32:45.168Z,66.68
2023-03-05T04:35:12.418Z,65.07
2023-03-05T04:37:39.262Z,61.75
2023-03-05T04:40:06.729Z,69.18
2023-03-05T04:42:33.898Z,59.25
2023-03-05T04:45:00.640Z,67.63
2023-03-05T04:47:27.546Z,64.80
2023-03-05T04:49:54.273Z,61.65
2023-03-05T04:52:21.102Z,64.47
2023-03-05T04:54:47.852Z,64.57
2023-03-05T04:57:14.779Z,65.47
2023-03-05T04:59:41.617Z,67.13
2023-03-05T05:02:08.405Z,51.40
2023-03-05T05:04:36.206Z,67.82
2023-03-05T05:07:03.830Z,59.20
2023-03-05T05:09:31.004Z,61.30
2023-03-05T05:11:57.901Z,62.35
2023-03-05T05:14:24.887Z,59.35
2023-03-05T05:16:54.416Z,59.53
2023-03-05T05:19:21.420Z,56.13
2023-03-05T05:21:48.714Z,58.22
2023-03-05T05:24:15.675Z,67.85
2023-03-05T05:26:42.392Z,59.30
2023-03-05T05:29:09.452Z,60.22
2023-03-05T05:31:36.310Z,54.72
2023-03-05T05:34:03.792Z,58.90
2023-03-05T05:36:30.861Z,60.65
2023-03-05T05:38:57.726Z,53.90
2023-03-05T05:41:24.572Z,53.05
2023-03-05T05:43:51.822Z,58.08
2023-03-05T05:46:20.559Z,51.75
2023-03-05T05:48:48.093Z,53.88
2023-03-05T05:51:22.889Z,52.65
2023-03-05T05:53:50.194Z,54.10
2023-03-05T05:56:18.183Z,50.58
2023-03-05T05:58:47.470Z,49.10
2023-03-05T06:01:32.938Z,48.63
2023-03-05T06:04:00.378Z,56.70
2023-03-05T06:06:28.329Z,50.10
2023-03-05T06:08:55.686Z,56.67
2023-03-05T06:11:23.422Z,57.10
2023-03-05T06:13:51.147Z,49.42
2023-03-05T06:16:20.970Z,49.78
2023-03-05T06:18:48.301Z,48.05
2023-03-05T06:21:18.422Z,51.47
2023-03-05T06:23:46.600Z,54.28
2023-03-05T06:26:16.908Z,51.78
2023-03-05T06:28:43.842Z,58.33
2023-03-05T06:31:17.525Z,63.80
2023-03-05T06:33:44.932Z,54.90
2023-03-05T06:36:14.588Z,58.15
2023-03-05T06:38:42.618Z,54.95
2023-03-05T06:41:15.688Z,64.63
2023-03-05T06:43:45.195Z,57.42
2023-03-05T06:46:25.169Z,58.22
2023-03-05T06:48:57.983Z,57.63
2023-03-05T06:51:28.525Z,58.65
2023-03-05T06:53:59.943Z,56.45
2023-03-05T06:56:27.037Z,64.22
2023-03-05T06:58:54.094Z,54.25
2023-03-05T07:01:21.509Z,54.20
2023-03-05T07:03:52.766Z,59.10
2023-03-05T07:06:19.956Z,61.70
2023-03-05T07:08:47.049Z,60.20
2023-03-05T07:11:16.814Z,58.00
2023-03-05T07:13:43.997Z,57.10
2023-03-05T07:16:15.621Z,56.72
2023-03-05T07:18:42.678Z,55.75
2023-03-05T07:21:13.523Z,62.17
2023-03-05T07:23:40.445Z,58.92
2023-03-05T07:26:07.547Z,56.80
2023-03-05T07:28:34.956Z,53.80
2023-03-05T07:31:04.907Z,53.08
2023-03-05T07:33:32.281Z,54.75
2023-03-05T07:35:59.362Z,53.60
2023-03-05T07:38:26.131Z,59.35
2023-03-05T07:40:53.322Z,52.17
2023-03-05T07:43:20.180Z,53.90
2023-03-05T07:45:47.110Z,59.10
2023-03-05T07:48:16.869Z,54.40
2023-03-05T07:50:44.233Z,54.53
2023-03-05T07:53:11.565Z,53.00
2023-03-05T07:55:45.626Z,47.00
2023-03-05T07:58:14.531Z,47.10
2023-03-05T08:00:41.494Z,52.53
2023-03-05T08:03:08.454Z,46.80
2023-03-05T08:05:38.524Z,47.55
2023-03-05T08:08:05.630Z,41.30
2023-03-05T08:10:33.310Z,47.28
2023-03-05T08:13:00.312Z,38.10
2023-03-05T08:15:27.506Z,37.15
2023-03-05T08:17:54.664Z,46.83
2023-03-05T08:20:21.517Z,45.28
2023-03-05T08:22:48.341Z,50.03
2023-03-05T08:25:15.217Z,42.30
2023-03-05T08:27:43.812Z,55.38
2023-03-05T08:30:22.618Z,60.03
2023-03-05T08:32:50.341Z,51.05
2023-03-05T08:35:17.210Z,49.35
2023-03-05T08:37:44.397Z,47.17
2023-03-05T08:40:12.402Z,46.92
2023-03-05T08:42:39.227Z,42.42
2023-03-05T08:45:06.778Z,38.22
2023-03-05T08:47:34.054Z,42.85
2023-03-05T08:50:01.408Z,38.10
2023-03-05T08:52:28.317Z,40.03
2023-03-05T08:54:55.258Z,39.70
2023-03-05T08:57:22.100Z,36.20
2023-03-05T08:59:48.973Z,35.30
2023-03-05T09:02:15.789Z,37.35
2023-03-05T09:04:42.543Z,39.35
2023-03-05T09:07:09.394Z,39.97
2023-03-05T09:09:36.944Z,40.40
2023-03-05T09:12:04.111Z,35.65
2023-03-05T09:14:30.946Z,35.85
2023-03-05T09:16:58.578Z,39.22
2023-03-05T09:19:25.817Z,39.80
2023-03-05T09:21:54.045Z,35.92
2023-03-05T09:24:25.155Z,33.03
2023-03-05T09:26:51.980Z,32.90
2023-03-05T09:29:18.768Z,31.15
2023-03-05T09:31:45.609Z,32.53
2023-03-05T09:34:12.610Z,30.02
2023-03-05T09:36:39.449Z,26.45
2023-03-05T09:39:07.039Z,31.15
2023-03-05T09:42:00.965Z,30.55
2023-03-05T09:45:03.963Z,30.95
2023-03-05T09:48:01.845Z,30.27
2023-03-05T09:50:33.760Z,35.42
2023-03-05T09:53:28.322Z,33.55
2023-03-05T09:55:58.871Z,34.47
2023-03-05T09:58:32.983Z,31.23
2023-03-05T10:01:14.015Z,27.30
2023-03-05T10:04:01.901Z,33.55
2023-03-05T10:06:37.555Z,33.92
2023-03-05T10:09:10.654Z,32.50
2023-03-05T10:11:56.475Z,34.33
2023-03-05T10:14:34.113Z,29.88
2023-03-05T10:17:19.808Z,33.30
2023-03-05T10:20:27.687Z,32.67
2023-03-05T10:23:29.558Z,32.10
2023-03-05T10:26:14.900Z,32.67
2023-03-05T10:29:03.789Z,28.50
2023-03-05T10:31:48.275Z,31.52
2023-03-05T10:34:27.941Z,29.00
2023-03-05T10:37:08.844Z,31.08
2023-03-05T10:39:44.586Z,30.20
2023-03-05T10:42:42.427Z,31.08
2023-03-05T10:45:14.728Z,24.25
2023-03-05T10:48:15.919Z,28.13
2023-03-05T10:50:50.751Z,27.48
2023-03-05T10:53:31.659Z,25.50
2023-03-05T10:56:02.425Z,27.88
2023-03-05T10:58:29.604Z,28.55
2023-03-05T11:00:59.803Z,24.58
2023-03-05T11:03:45.372Z,23.95
2023-03-05T11:06:13.276Z,22.67
2023-03-05T11:08:41.399Z,28.15
2023-03-05T11:11:14.249Z,31.67
2023-03-05T11:13:57.955Z,25.25
2023-03-05T11:16:26.773Z,26.75
2023-03-05T11:19:21.657Z,25.40
2023-03-05T11:22:15.121Z,25.48
2023-03-05T11:24:42.208Z,27.30
2023-03-05T11:27:38.181Z,19.90
2023-03-05T11:30:36.403Z,20.15
2023-03-05T11:33:19.338Z,20.10
2023-03-05T11:35:47.371Z,19.75
2023-03-05T11:38:26.610Z,16.17
2023-03-05T11:40:56.237Z,16.27
2023-03-05T11:43:25.655Z,15.90
2023-03-05T11:46:02.318Z,17.75
2023-03-05T11:48:35.303Z,17.98
2023-03-05T11:51:07.262Z,19.40
2023-03-05T11:53:37.166Z,16.38
2023-03-05T11:56:21.561Z,17.13
2023-03-05T11:59:01.824Z,13.50
2023-03-05T12:01:33.371Z,11.88
2023-03-05T12:04:01.045Z,13.75
2023-03-05T12:06:48.343Z,12.95
2023-03-05T12:09:50.650Z,12.48
2023-03-05T12:12:30.887Z,10.95
2023-03-05T12:15:12.827Z,10.68
2023-03-05T12:18:07.390Z,8.90
2023-03-05T12:21:01.962Z,9.32
2023-03-05T12:23:28.840Z,8.27
2023-03-05T12:25:59.298Z,11.02
2023-03-05T12:28:32.210Z,10.52
2023-03-05T12:31:00.777Z,13.35
2023-03-05T12:33:39.832Z,8.90
2023-03-05T12:36:21.851Z,10.85
2023-03-05T12:38:56.356Z,16.23
2023-03-05T12:41:23.189Z,9.02
2023-03-05T12:44:05.057Z,8.15
2023-03-05T12:46:43.239Z,9.07
2023-03-05T12:49:20.750Z,9.18
2023-03-05T12:51:49.916Z,10.00
2023-03-05T12:54:35.734Z,11.30
2023-03-05T12:57:06.668Z,9.93
2023-03-05T12:59:45.006Z,9.25
2023-03-05T13:02:26.759Z,9.60
2023-03-05T13:04:59.419Z,8.68
2023-03-05T13:07:26.345Z,12.00
2023-03-05T13:09:59.062Z,9.85
2023-03-05T13:12:28.898Z,8.07
2023-03-05T13:15:03.077Z,11.23
2023-03-05T13:17:40.662Z,8.93
2023-03-05T13:20:31.817Z,8.70
2023-03-05T13:23:24.846Z,12.20
2023-03-05T13:26:12.847Z,8.45
2023-03-05T13:28:40.036Z,8.85
2023-03-05T13:31:19.183Z,10.93
2023-03-05T13:33:54.236Z,7.18
2023-03-05T13:36:24.275Z,10.30
2023-03-05T13:38:52.443Z,9.40
2023-03-05T13:41:28.243Z,9.90
2023-03-05T13:44:00.158Z,8.27
2023-03-05T13:46:36.182Z,11.40
2023-03-05T13:49:32.991Z,9.93
2023-03-05T13:52:00.226Z,9.65
2023-03-05T13:54:28.267Z,9.10
2023-03-05T13:56:59.333Z,13.65
2023-03-05T13:59:30.745Z,10.15
2023-03-05T14:01:59.655Z,9.00
2023-03-05T14:04:30.076Z,8.07
2023-03-05T14:07:02.298Z,8.48
2023-03-05T14:09:29.171Z,8.60
2023-03-05T14:12:04.938Z,8.13
2023-03-05T14:14:37.595Z,9.95
2023-03-05T14:17:30.625Z,15.23
2023-03-05T14:20:23.431Z,10.65
2023-03-05T14:23:01.423Z,8.43
2023-03-05T14:25:42.108Z,8.02
2023-03-05T14:28:18.467Z,9.32
2023-03-05T14:30:47.540Z,10.15
2023-03-05T14:33:15.426Z,7.60
2023-03-05T14:35:49.052Z,8.38
2023-03-05T14:38:23.454Z,8.55
2023-03-05T14:40:50.717Z,10.85
2023-03-05T14:43:17.670Z,8.32
2023-03-05T14:45:45.076Z,10.00
2023-03-05T14:48:15.119Z,10.57
2023-03-05T14:50:56.456Z,11.02
2023-03-05T14:53:27.163Z,9.32
2023-03-05T14:55:56.811Z,8.07
2023-03-05T14:58:32.239Z,9.27
2023-03-05T15:00:59.795Z,10.68
2023-03-05T15:03:28.186Z,10.27
2023-03-05T15:05:57.725Z,9.90
2023-03-05T15:08:28.849Z,11.20
2023-03-05T15:10:55.994Z,13.88
2023-03-05T15:13:23.021Z,14.93
2023-03-05T15:15:51.355Z,13.00
2023-03-05T15:18:19.988Z,11.63
2023-03-05T15:20:48.901Z,11.20
2023-03-05T15:23:16.085Z,10.02
2023-03-05T15:25:43.067Z,11.95
2023-03-05T15:28:10.115Z,12.00
2023-03-05T15:30:40.510Z,11.18
2023-03-05T15:33:10.573Z,13.63
2023-03-05T15:35:37.884Z,14.82
2023-03-05T15:38:05.048Z,14.23
2023-03-05T15:40:32.942Z,13.50
2023-03-05T15:43:01.199Z,17.95
2023-03-05T15:45:31.323Z,11.35
2023-03-05T15:47:58.690Z,11.27
2023-03-05T15:50:25.637Z,11.68
2023-03-05T15:52:52.608Z,13.80
2023-03-05T15:55:20.205Z,12.10
2023-03-05T15:57:49.441Z,12.85
2023-03-05T16:00:22.623Z,11.93
2023-03-05T16:02:50.973Z,12.07
2023-03-05T16:05:18.580Z,13.27
2023-03-05T16:07:48.688Z,15.75
2023-03-05T16:10:21.583Z,16.63
2023-03-05T16:12:53.696Z,15.15
2023-03-05T16:15:21.853Z,14.23
2023-03-05T16:17:53.304Z,16.67
2023-03-05T16:20:20.568Z,13.32
2023-03-05T16:22:47.445Z,13.27
2023-03-05T16:25:14.491Z,13.18
2023-03-05T16:27:41.289Z,11.10
2023-03-05T16:30:08.837Z,13.80
2023-03-05T16:32:37.999Z,14.73
2023-03-05T16:35:05.550Z,15.02
2023-03-05T16:37:32.548Z,13.77
2023-03-05T16:39:59.603Z,14.20
2023-03-05T16:42:26.652Z,16.88
2023-03-05T16:44:54.111Z,15.13
2023-03-05T16:47:21.130Z,14.10
2023-03-05T16:49:48.029Z,12.70
2023-03-05T16:52:19.598Z,14.43
2023-03-05T16:54:47.994Z,12.20
2023-03-05T16:57:15.482Z,18.15
2023-03-05T16:59:43.606Z,16.10
2023-03-05T17:02:13.561Z,14.77
2023-03-05T17:04:40.584Z,14.85
2023-03-05T17:07:07.692Z,14.50
2023-03-05T17:09:35.091Z,13.27
2023-03-05T17:12:02.174Z,14.32
2023-03-05T17:14:29.442Z,11.85
2023-03-05T17:16:56.404Z,12.55
2023-03-05T17:19:23.554Z,17.95
2023-03-05T17:21:52.319Z,14.48
2023-03-05T17:24:21.493Z,15.35
2023-03-05T17:26:50.036Z,14.35
2023-03-05T17:29:18.923Z,18.08
2023-03-05T17:31:46.741Z,16.35
2023-03-05T17:34:14.414Z,13.43
2023-03-05T17:36:41.253Z,13.48
2023-03-05T17:39:08.869Z,17.42
2023-03-05T17:41:35.788Z,13.15
2023-03-05T17:44:02.705Z,14.27
2023-03-05T17:46:29.691Z,17.42
2023-03-05T17:48:56.683Z,14.00
2023-03-05T17:51:23.585Z,15.57
2023-03-05T17:53:50.397Z,15.68
2023-03-05T17:56:17.537Z,16.30
2023-03-05T17:58:44.306Z,14.05
2023-03-05T18:01:11.468Z,12.93
2023-03-05T18:03:39.439Z,12.40
2023-03-05T18:06:06.456Z,15.27
2023-03-05T18:08:33.662Z,15.90
2023-03-05T18:11:00.458Z,14.73
2023-03-05T18:13:27.355Z,13.63
2023-03-05T18:15:57.337Z,16.52
2023-03-05T18:18:24.076Z,16.85
2023-03-05T18:20:50.827Z,14.15
2023-03-05T18:23:17.709Z,15.10
2023-03-05T18:25:44.619Z,18.38
2023-03-05T18:28:13.254Z,17.10
2023-03-05T18:30:41.833Z,17.55
2023-03-05T18:33:15.508Z,16.33
2023-03-05T18:35:42.357Z,15.30
2023-03-05T18:38:09.255Z,15.90
2023-03-05T18:40:36.544Z,17.02
2023-03-05T18:43:03.894Z,21.25
2023-03-05T18:45:32.316Z,32.95
2023-03-05T18:47:59.108Z,33.75
2023-03-05T18:50:27.566Z,28.38
2023-03-05T18:52:54.478Z,25.17
2023-03-05T18:55:25.693Z,23.48
2023-03-05T18:57:53.166Z,16.50
2023-03-05T19:00:25.910Z,19.73
2023-03-05T19:02:53.354Z,15.43
2023-03-05T19:05:21.233Z,15.10
2023-03-05T19:07:48.686Z,17.77
2023-03-05T19:10:17.620Z,18.08
2023-03-05T19:13:05.636Z,22.25
2023-03-05T19:15:32.969Z,22.33
2023-03-05T19:17:59.836Z,21.33
2023-03-05T19:20:26.730Z,16.85
2023-03-05T19:22:55.697Z,20.10
2023-03-05T19:25:22.719Z,14.45
2023-03-05T19:27:49.946Z,14.98
2023-03-05T19:30:17.466Z,19.08
2023-03-05T19:32:47.125Z,15.65
2023-03-05T19:35:16.154Z,16.30
2023-03-05T19:37:45.877Z,12.70
2023-03-05T19:40:14.043Z,14.80
2023-03-05T19:42:41.368Z,13.95
2023-03-05T19:45:08.932Z,14.88
2023-03-05T19:47:35.764Z,12.18
2023-03-05T19:50:02.989Z,14.13
2023-03-05T19:52:29.849Z,14.80
2023-03-05T19:54:56.709Z,13.73
2023-03-05T19:57:23.521Z,12.18
2023-03-05T19:59:53.669Z,13.65
2023-03-05T20:02:21.938Z,14.38
2023-03-05T20:04:49.573Z,14.10
2023-03-05T20:07:16.829Z,14.30
2023-03-05T20:09:43.709Z,15.98
2023-03-05T20:12:11.229Z,18.55
2023-03-05T20:14:38.201Z,16.70
2023-03-05T20:17:05.243Z,14.32
2023-03-05T20:19:32.182Z,16.75
2023-03-05T20:21:59.338Z,14.27
2023-03-05T20:24:26.147Z,14.93
2023-03-05T20:26:52.911Z,18.88
2023-03-05T20:29:19.769Z,14.55
2023-03-05T20:31:47.754Z,15.60
2023-03-05T20:34:16.801Z,16.33
2023-03-05T20:36:44.312Z,18.83
2023-03-05T20:39:11.319Z,14.38
2023-03-05T20:41:40.127Z,18.58
2023-03-05T20:44:08.110Z,18.75
2023-03-05T20:46:41.833Z,17.25
2023-03-05T20:49:09.747Z,17.92
2023-03-05T20:51:38.314Z,16.13
2023-03-05T20:54:08.864Z,16.55
2023-03-05T20:56:36.010Z,12.57
2023-03-05T20:59:04.989Z,19.30
2023-03-05T21:01:34.229Z,19.42
2023-03-05T21:04:01.616Z,19.05
2023-03-05T21:06:29.637Z,21.27
2023-03-05T21:08:57.710Z,16.48
2023-03-05T21:11:24.896Z,17.65
2023-03-05T21:13:51.826Z,23.50
2023-03-05T21:16:22.776Z,16.20
2023-03-05T21:18:50.783Z,18.48
2023-03-05T21:21:17.998Z,22.45
2023-03-05T21:23:46.124Z,16.85
2023-03-05T21:26:13.571Z,20.20
2023-03-05T21:28:41.204Z,24.20
2023-03-05T21:31:10.718Z,24.38
2023-03-05T21:33:38.062Z,19.25
2023-03-05T21:36:05.273Z,21.85
2023-03-05T21:38:34.106Z,21.88
2023-03-05T21:41:02.364Z,19.58
2023-03-05T21:43:31.130Z,21.52
2023-03-05T21:46:00.286Z,30.02
2023-03-05T21:48:27.325Z,26.08
2023-03-05T21:50:55.320Z,24.17
2023-03-05T21:53:22.889Z,20.80
2023-03-05T21:56:00.016Z,19.45
2023-03-05T21:58:26.890Z,17.48
2023-03-05T22:00:53.693Z,16.13
2023-03-05T22:03:20.546Z,17.88
2023-03-05T22:05:47.374Z,16.42
2023-03-05T22:08:14.583Z,17.20
2023-03-05T22:10:41.847Z,15.82
2023-03-05T22:13:12.802Z,18.23
2023-03-05T22:15:49.334Z,17.02
2023-03-05T22:18:21.517Z,19.05
2023-03-05T22:20:49.120Z,19.60
2023-03-05T22:23:16.905Z,18.40
2023-03-05T22:25:44.122Z,14.98
2023-03-05T22:28:12.891Z,15.63
2023-03-05T22:30:46.459Z,17.73
2023-03-05T22:33:13.844Z,17.08
2023-03-05T22:35:41.974Z,18.42
2023-03-05T22:38:09.925Z,17.23
2023-03-05T22:40:40.587Z,16.95
2023-03-05T22:43:07.476Z,18.45
2023-03-05T22:45:34.538Z,19.25
2023-03-05T22:48:01.583Z,23.65
2023-03-05T22:50:28.523Z,17.13
2023-03-05T22:52:55.861Z,18.73
2023-03-05T22:55:22.624Z,16.50
2023-03-05T22:57:49.742Z,16.63
2023-03-05T23:00:23.631Z,18.67
2023-03-05T23:02:51.820Z,20.05
2023-03-05T23:05:19.686Z,17.48
2023-03-05T23:07:46.851Z,17.67
2023-03-05T23:10:20.594Z,16.38
2023-03-05T23:12:50.657Z,16.50
2023-03-05T23:15:21.376Z,17.58
2023-03-05T23:17:48.404Z,16.00
2023-03-05T23:20:17.282Z,18.70
2023-03-05T23:22:45.240Z,17.80
2023-03-05T23:25:14.141Z,16.88
2023-03-05T23:27:41.401Z,20.45
2023-03-05T23:30:24.324Z,17.20
2023-03-05T23:32:53.848Z,20.58
2023-03-05T23:35:34.927Z,21.45
2023-03-05T23:38:03.605Z,18.55
2023-03-05T23:40:37.139Z,22.17
2023-03-05T23:43:04.736Z,19.15
2023-03-05T23:45:31.780Z,19.27
2023-03-05T23:47:58.922Z,19.65
2023-03-05T23:50:33.598Z,20.15
2023-03-05T23:53:02.146Z,18.92
2023-03-05T23:55:49.804Z,21.23
2023-03-05T23:58:17.286Z,20.23
